Thursday, October 23, 2014
03:52 UTC
  |  Log In   |  Register Free
Airport Search:

Mount Sterling-Montgomery County Airport
(KIOB)

Mount Sterling-Montgomery County Airport Diagram
No Airport Diagram Available

FAA data valid effective September 18, 2014 - November 13, 2014 (unless otherwise noted).

 
 
 
 
 
 
 
 
 
 
 
 
 
 

Current Aviation Weather for Mount Sterling-Montgomery County Airport (KIOB)

The most recent METAR observation for KIOB was updated at: 0314
METAR Summary (Translated METAR)
KIOB
230255Z AUTO 03003KT 10SM OVC028 09/06 A3027 RMK AO2
KLEX
230254Z 06008KT 10SM OVC029 11/04 A3026 RMK AO2 SLP247 T01110044 50004
(29.6 nm SW from KIOB)
KFGX
230255Z AUTO 03006KT 10SM OVC028 09/05 A3028 RMK AO2 T00860050
(31.1 nm NE from KIOB)
TAF Summary (Translated TAF)
KLEX
(29.6 nm SW from KIOB)
222155Z 2222/2318 04006KT P6SM BKN035 FM222300 05004KT P6SM SKC FM231000 00000KT 4SM BR SKC FM231300 06004KT P6SM SCT250
  Airport Weather Conditions for KIOB

 Current Weather at IOB
48° F
Overcast
North winds at 0.0 mph
IOB NOAA Radar

Pressure: 30.27 in
Humidity: 82%
Wind: Calm
Dew Point: 42.8°F
Visibility: 10.00 mi


Airport Weather Forecast for KIOB

Translated METAR and TAF for KIOB
Translated METAR for KIOB (0347 UTC 23 October 2014)
found at http://aviationweather.gov/adds/metars/
 
METAR text: KIOB 230335Z AUTO 00000KT 10SM OVC028 09/06 A3026 RMK AO2
Conditions at: KIOB (MOUNT STERLING , KY, US) observed 0335 UTC 23 October 2014
Temperature: 9.0°C (48°F)
Dewpoint: 6.0°C (43°F) [RH = 81%]
Pressure (altimeter): 30.26 inches Hg (1024.8 mb)
Winds: calm
Visibility: 10 or more miles (16+ km)
Ceiling: 2800 feet AGL
Clouds: overcast cloud deck at 2800 feet AGL
Weather: automated observation with no human augmentation;
there may or may not be significant weather present at this time
Translated TAF for KIOB

There is no translated TAF available for this airport

Find All Airport Services Find A Hotel Find A Rental Car Find A Golf Course Find A Restaurant $100 Hamburger



FBO's on the Field
FBO Company Facility Photos Services Transportation Aviation Fuel Prices: Prices include tax
Catering Weather Repair Courtesy Rental Type 100LL JetA JetA+ MOGAS 8087
 
Kentucky Airmotive Inc

This FBO has not yet been rated
FS:Shell
Last Updated: Sep-23
Login to update fuel prices
SS:
Contact Kentucky Airmotive IncMore FBO Information
 
Add another FBO Facility Photos Catering Weather Repair Courtesy Rental Type 100LL JetA JetA+ MOGAS 8087
Services Transportation Aviation Fuel Prices: Prices include tax


model-print
model-print
model-print
model-print